sensor_id;sensor_type;location;lat;lon;timestamp;temperature;humidity
6178;DHT22;3122;48.208;11.174;2024-01-10T00:03:40;-8.30;1.00
6178;DHT22;3122;48.208;11.174;2024-01-10T00:08:40;-8.20;1.00
6178;DHT22;3122;48.208;11.174;2024-01-10T00:13:41;-8.30;1.00
6178;DHT22;3122;48.208;11.174;2024-01-10T00:18:41;-8.30;1.00
6178;DHT22;3122;48.208;11.174;2024-01-10T00:23:42;-8.20;1.00
6178;DHT22;3122;48.208;11.174;2024-01-10T00:28:42;-8.30;1.00
6178;DHT22;3122;48.208;11.174;2024-01-10T00:33:46;-8.20;1.00
6178;DHT22;3122;48.208;11.174;2024-01-10T00:38:46;-8.20;1.00
6178;DHT22;3122;48.208;11.174;2024-01-10T00:43:47;-8.20;1.00
6178;DHT22;3122;48.208;11.174;2024-01-10T00:48:47;-8.20;1.00
6178;DHT22;3122;48.208;11.174;2024-01-10T00:53:48;-8.10;1.00
6178;DHT22;3122;48.208;11.174;2024-01-10T00:58:48;-8.10;1.00
6178;DHT22;3122;48.208;11.174;2024-01-10T01:03:49;-8.20;1.00
6178;DHT22;3122;48.208;11.174;2024-01-10T01:08:50;-8.10;1.00
6178;DHT22;3122;48.208;11.174;2024-01-10T01:13:50;-8.00;1.00
6178;DHT22;3122;48.208;11.174;2024-01-10T01:18:51;-8.10;1.00
6178;DHT22;3122;48.208;11.174;2024-01-10T01:23:51;-8.00;1.00
6178;DHT22;3122;48.208;11.174;2024-01-10T01:28:52;-8.10;1.00
6178;DHT22;3122;48.208;11.174;2024-01-10T01:33:52;-8.00;1.00
6178;DHT22;3122;48.208;11.174;2024-01-10T01:38:53;-7.90;1.00
6178;DHT22;3122;48.208;11.174;2024-01-10T01:43:53;-7.80;1.00
6178;DHT22;3122;48.208;11.174;2024-01-10T01:48:54;-7.70;1.00
6178;DHT22;3122;48.208;11.174;2024-01-10T01:53:55;-7.70;1.00
6178;DHT22;3122;48.208;11.174;2024-01-10T01:58:56;-7.50;1.00
6178;DHT22;3122;48.208;11.174;2024-01-10T02:03:57;-7.40;1.00
6178;DHT22;3122;48.208;11.174;2024-01-10T02:08:57;-7.30;1.00
6178;DHT22;3122;48.208;11.174;2024-01-10T02:13:58;-7.30;1.00
6178;DHT22;3122;48.208;11.174;2024-01-10T02:18:59;-7.20;1.00
6178;DHT22;3122;48.208;11.174;2024-01-10T02:24:00;-7.10;1.00
6178;DHT22;3122;48.208;11.174;2024-01-10T02:29:01;-7.00;1.00
6178;DHT22;3122;48.208;11.174;2024-01-10T02:34:01;-7.00;1.00
6178;DHT22;3122;48.208;11.174;2024-01-10T02:39:02;-7.00;1.00
6178;DHT22;3122;48.208;11.174;2024-01-10T02:44:02;-6.90;1.00
6178;DHT22;3122;48.208;11.174;2024-01-10T02:49:04;-6.90;1.00
6178;DHT22;3122;48.208;11.174;2024-01-10T02:54:04;-6.80;1.00
6178;DHT22;3122;48.208;11.174;2024-01-10T02:59:05;-6.80;1.00
6178;DHT22;3122;48.208;11.174;2024-01-10T03:04:05;-6.90;1.00
6178;DHT22;3122;48.208;11.174;2024-01-10T03:09:06;-6.80;1.00
6178;DHT22;3122;48.208;11.174;2024-01-10T03:14:10;-6.60;1.00
6178;DHT22;3122;48.208;11.174;2024-01-10T03:19:11;-6.60;1.00
6178;DHT22;3122;48.208;11.174;2024-01-10T03:24:11;-6.60;1.00
6178;DHT22;3122;48.208;11.174;2024-01-10T03:29:12;-6.60;1.00
6178;DHT22;3122;48.208;11.174;2024-01-10T03:34:13;-6.50;1.00
6178;DHT22;3122;48.208;11.174;2024-01-10T03:39:14;-6.60;1.00
6178;DHT22;3122;48.208;11.174;2024-01-10T03:44:14;-6.50;1.00
6178;DHT22;3122;48.208;11.174;2024-01-10T03:49:15;-6.50;1.00
6178;DHT22;3122;48.208;11.174;2024-01-10T03:54:16;-6.50;1.00
6178;DHT22;3122;48.208;11.174;2024-01-10T03:59:16;-6.50;1.00
6178;DHT22;3122;48.208;11.174;2024-01-10T04:04:17;-6.50;1.00
6178;DHT22;3122;48.208;11.174;2024-01-10T04:09:17;-6.40;1.00
6178;DHT22;3122;48.208;11.174;2024-01-10T04:14:18;-6.40;1.00
6178;DHT22;3122;48.208;11.174;2024-01-10T04:19:18;-6.40;1.00
6178;DHT22;3122;48.208;11.174;2024-01-10T04:24:19;-6.40;1.00
6178;DHT22;3122;48.208;11.174;2024-01-10T04:29:19;-6.40;1.00
6178;DHT22;3122;48.208;11.174;2024-01-10T04:34:20;-6.30;1.00
6178;DHT22;3122;48.208;11.174;2024-01-10T04:39:20;-6.20;1.00
6178;DHT22;3122;48.208;11.174;2024-01-10T04:44:21;-6.10;1.00
6178;DHT22;3122;48.208;11.174;2024-01-10T04:49:21;-6.10;1.00
6178;DHT22;3122;48.208;11.174;2024-01-10T04:54:22;-6.10;1.00
6178;DHT22;3122;48.208;11.174;2024-01-10T04:59:23;-6.10;1.00
6178;DHT22;3122;48.208;11.174;2024-01-10T05:04:23;-6.10;1.00
6178;DHT22;3122;48.208;11.174;2024-01-10T05:09:24;-6.10;1.00
6178;DHT22;3122;48.208;11.174;2024-01-10T05:14:24;-6.10;1.00
6178;DHT22;3122;48.208;11.174;2024-01-10T05:19:25;-6.20;1.00
6178;DHT22;3122;48.208;11.174;2024-01-10T05:24:25;-6.20;1.00
6178;DHT22;3122;48.208;11.174;2024-01-10T05:29:26;-6.20;1.00
6178;DHT22;3122;48.208;11.174;2024-01-10T05:34:27;-6.20;1.00
6178;DHT22;3122;48.208;11.174;2024-01-10T05:39:28;-6.20;1.00
6178;DHT22;3122;48.208;11.174;2024-01-10T05:44:29;-6.10;1.00
6178;DHT22;3122;48.208;11.174;2024-01-10T05:49:30;-6.20;1.00
6178;DHT22;3122;48.208;11.174;2024-01-10T05:54:30;-6.10;1.00
6178;DHT22;3122;48.208;11.174;2024-01-10T05:59:31;-6.20;1.00
6178;DHT22;3122;48.208;11.174;2024-01-10T06:04:31;-6.20;1.00
6178;DHT22;3122;48.208;11.174;2024-01-10T06:09:32;-6.10;1.00
6178;DHT22;3122;48.208;11.174;2024-01-10T06:14:32;-6.00;1.00
6178;DHT22;3122;48.208;11.174;2024-01-10T06:19:33;-6.10;1.00
6178;DHT22;3122;48.208;11.174;2024-01-10T06:24:34;-6.10;1.00
6178;DHT22;3122;48.208;11.174;2024-01-10T06:29:34;-6.00;1.00
6178;DHT22;3122;48.208;11.174;2024-01-10T06:34:35;-6.00;1.00
6178;DHT22;3122;48.208;11.174;2024-01-10T06:39:35;-6.10;1.00
6178;DHT22;3122;48.208;11.174;2024-01-10T06:44:36;-6.20;1.00
6178;DHT22;3122;48.208;11.174;2024-01-10T06:49:36;-6.20;1.00
6178;DHT22;3122;48.208;11.174;2024-01-10T06:54:37;-6.40;1.00
6178;DHT22;3122;48.208;11.174;2024-01-10T06:59:38;-6.40;1.00
6178;DHT22;3122;48.208;11.174;2024-01-10T07:04:38;-6.50;1.00
6178;DHT22;3122;48.208;11.174;2024-01-10T07:09:39;-6.50;1.00
6178;DHT22;3122;48.208;11.174;2024-01-10T07:14:41;-6.50;1.00
6178;DHT22;3122;48.208;11.174;2024-01-10T07:19:41;-6.50;1.00
6178;DHT22;3122;48.208;11.174;2024-01-10T07:24:42;-6.60;1.00
6178;DHT22;3122;48.208;11.174;2024-01-10T07:29:43;-6.60;1.00
6178;DHT22;3122;48.208;11.174;2024-01-10T07:34:43;-6.70;1.00
6178;DHT22;3122;48.208;11.174;2024-01-10T07:39:45;-6.70;1.00
6178;DHT22;3122;48.208;11.174;2024-01-10T07:44:45;-6.70;1.00
6178;DHT22;3122;48.208;11.174;2024-01-10T07:49:46;-6.60;1.00
6178;DHT22;3122;48.208;11.174;2024-01-10T07:54:46;-6.60;1.00
6178;DHT22;3122;48.208;11.174;2024-01-10T07:59:48;-6.50;1.00
6178;DHT22;3122;48.208;11.174;2024-01-10T08:04:48;-6.50;1.00
6178;DHT22;3122;48.208;11.174;2024-01-10T08:09:49;-6.40;1.00
6178;DHT22;3122;48.208;11.174;2024-01-10T08:14:50;-6.30;1.00
6178;DHT22;3122;48.208;11.174;2024-01-10T08:19:50;-6.30;1.00
6178;DHT22;3122;48.208;11.174;2024-01-10T08:24:52;-6.30;1.00
6178;DHT22;3122;48.208;11.174;2024-01-10T08:29:52;-6.10;1.00
6178;DHT22;3122;48.208;11.174;2024-01-10T08:34:53;-6.10;1.00
6178;DHT22;3122;48.208;11.174;2024-01-10T08:39:53;-6.20;1.00
6178;DHT22;3122;48.208;11.174;2024-01-10T08:44:54;-6.20;1.00
6178;DHT22;3122;48.208;11.174;2024-01-10T08:49:56;-6.20;1.00
6178;DHT22;3122;48.208;11.174;2024-01-10T08:54:56;-6.10;1.00
6178;DHT22;3122;48.208;11.174;2024-01-10T08:59:57;-6.00;1.00
6178;DHT22;3122;48.208;11.174;2024-01-10T09:04:57;-6.00;1.00
6178;DHT22;3122;48.208;11.174;2024-01-10T09:09:58;-5.90;1.00
6178;DHT22;3122;48.208;11.174;2024-01-10T09:14:59;-5.80;1.00
6178;DHT22;3122;48.208;11.174;2024-01-10T09:19:59;-5.80;1.00
6178;DHT22;3122;48.208;11.174;2024-01-10T09:25:03;-5.70;1.00
6178;DHT22;3122;48.208;11.174;2024-01-10T09:30:06;-5.50;1.00
6178;DHT22;3122;48.208;11.174;2024-01-10T09:35:08;-5.40;1.00
6178;DHT22;3122;48.208;11.174;2024-01-10T09:40:10;-5.40;1.00
6178;DHT22;3122;48.208;11.174;2024-01-10T09:45:11;-5.30;1.00
6178;DHT22;3122;48.208;11.174;2024-01-10T09:50:15;-5.20;1.00
6178;DHT22;3122;48.208;11.174;2024-01-10T09:55:16;-5.00;1.00
6178;DHT22;3122;48.208;11.174;2024-01-10T10:00:17;-4.90;1.00
6178;DHT22;3122;48.208;11.174;2024-01-10T10:05:18;-4.70;1.00
6178;DHT22;3122;48.208;11.174;2024-01-10T10:10:19;-4.60;1.00
6178;DHT22;3122;48.208;11.174;2024-01-10T10:15:22;-4.60;1.00
6178;DHT22;3122;48.208;11.174;2024-01-10T10:20:24;-4.60;1.00
6178;DHT22;3122;48.208;11.174;2024-01-10T10:25:36;-4.60;1.00
6178;DHT22;3122;48.208;11.174;2024-01-10T10:30:38;-4.50;1.00
6178;DHT22;3122;48.208;11.174;2024-01-10T10:35:38;-4.40;1.00
6178;DHT22;3122;48.208;11.174;2024-01-10T10:40:39;-4.30;1.00
6178;DHT22;3122;48.208;11.174;2024-01-10T10:45:44;-4.00;1.00
6178;DHT22;3122;48.208;11.174;2024-01-10T10:51:11;-4.10;1.00
6178;DHT22;3122;48.208;11.174;2024-01-10T10:56:13;-4.30;1.00
6178;DHT22;3122;48.208;11.174;2024-01-10T11:01:15;-4.50;1.00
6178;DHT22;3122;48.208;11.174;2024-01-10T11:06:17;-4.30;1.00
6178;DHT22;3122;48.208;11.174;2024-01-10T11:27:13;-4.30;1.00
6178;DHT22;3122;48.208;11.174;2024-01-10T11:32:21;-4.30;1.00
6178;DHT22;3122;48.208;11.174;2024-01-10T11:37:23;-4.30;1.00
6178;DHT22;3122;48.208;11.174;2024-01-10T11:42:32;-4.40;1.00
6178;DHT22;3122;48.208;11.174;2024-01-10T11:47:41;-4.40;1.00
6178;DHT22;3122;48.208;11.174;2024-01-10T11:52:42;-4.30;1.00
6178;DHT22;3122;48.208;11.174;2024-01-10T11:57:43;-4.30;1.00
6178;DHT22;3122;48.208;11.174;2024-01-10T12:02:45;-4.30;1.00
6178;DHT22;3122;48.208;11.174;2024-01-10T12:07:50;-4.20;1.00
6178;DHT22;3122;48.208;11.174;2024-01-10T12:12:52;-4.10;1.00
6178;DHT22;3122;48.208;11.174;2024-01-10T12:17:55;-4.10;1.00
6178;DHT22;3122;48.208;11.174;2024-01-10T12:22:56;-4.10;1.00
6178;DHT22;3122;48.208;11.174;2024-01-10T12:28:01;-4.20;1.00
6178;DHT22;3122;48.208;11.174;2024-01-10T12:33:03;-4.00;1.00
6178;DHT22;3122;48.208;11.174;2024-01-10T12:38:04;-4.00;1.00
6178;DHT22;3122;48.208;11.174;2024-01-10T12:43:05;-4.10;1.00
6178;DHT22;3122;48.208;11.174;2024-01-10T12:48:06;-4.10;1.00
6178;DHT22;3122;48.208;11.174;2024-01-10T12:53:09;-3.90;1.00
6178;DHT22;3122;48.208;11.174;2024-01-10T12:58:10;-3.90;1.00
6178;DHT22;3122;48.208;11.174;2024-01-10T13:03:10;-4.00;1.00
6178;DHT22;3122;48.208;11.174;2024-01-10T13:08:11;-3.80;1.00
6178;DHT22;3122;48.208;11.174;2024-01-10T13:13:12;-3.80;1.00
6178;DHT22;3122;48.208;11.174;2024-01-10T13:18:13;-3.50;1.00
6178;DHT22;3122;48.208;11.174;2024-01-10T13:23:14;-3.80;1.00
6178;DHT22;3122;48.208;11.174;2024-01-10T13:28:16;-3.90;1.00
6178;DHT22;3122;48.208;11.174;2024-01-10T13:33:16;-3.90;1.00
6178;DHT22;3122;48.208;11.174;2024-01-10T13:38:19;-4.10;1.00
6178;DHT22;3122;48.208;11.174;2024-01-10T13:43:19;-4.00;1.00
6178;DHT22;3122;48.208;11.174;2024-01-10T13:48:20;-4.00;1.00
6178;DHT22;3122;48.208;11.174;2024-01-10T13:53:21;-4.10;1.00
6178;DHT22;3122;48.208;11.174;2024-01-10T13:58:21;-4.10;1.00
6178;DHT22;3122;48.208;11.174;2024-01-10T14:03:23;-4.10;1.00
6178;DHT22;3122;48.208;11.174;2024-01-10T14:08:24;-4.10;1.00
6178;DHT22;3122;48.208;11.174;2024-01-10T14:13:25;-4.20;1.00
6178;DHT22;3122;48.208;11.174;2024-01-10T14:18:25;-4.20;1.00
6178;DHT22;3122;48.208;11.174;2024-01-10T14:23:26;-4.30;1.00
6178;DHT22;3122;48.208;11.174;2024-01-10T14:28:27;-4.30;1.00
6178;DHT22;3122;48.208;11.174;2024-01-10T14:33:27;-4.30;1.00
6178;DHT22;3122;48.208;11.174;2024-01-10T14:38:28;-4.50;1.00
6178;DHT22;3122;48.208;11.174;2024-01-10T14:43:29;-4.50;1.00
6178;DHT22;3122;48.208;11.174;2024-01-10T14:48:29;-4.60;1.00
6178;DHT22;3122;48.208;11.174;2024-01-10T14:53:31;-4.50;1.00
6178;DHT22;3122;48.208;11.174;2024-01-10T14:58:31;-4.70;1.00
6178;DHT22;3122;48.208;11.174;2024-01-10T15:03:32;-4.70;1.00
6178;DHT22;3122;48.208;11.174;2024-01-10T15:08:32;-4.90;1.00
6178;DHT22;3122;48.208;11.174;2024-01-10T15:13:37;-4.80;1.00
6178;DHT22;3122;48.208;11.174;2024-01-10T15:18:38;-4.80;1.00
6178;DHT22;3122;48.208;11.174;2024-01-10T15:23:38;-4.80;1.00
6178;DHT22;3122;48.208;11.174;2024-01-10T15:28:39;-4.90;1.00
6178;DHT22;3122;48.208;11.174;2024-01-10T15:33:39;-4.90;1.00
6178;DHT22;3122;48.208;11.174;2024-01-10T15:38:42;-5.00;1.00
6178;DHT22;3122;48.208;11.174;2024-01-10T15:43:43;-5.00;1.00
6178;DHT22;3122;48.208;11.174;2024-01-10T15:48:44;-5.00;1.00
6178;DHT22;3122;48.208;11.174;2024-01-10T15:53:44;-5.00;1.00
6178;DHT22;3122;48.208;11.174;2024-01-10T15:58:45;-5.00;1.00
6178;DHT22;3122;48.208;11.174;2024-01-10T16:03:45;-5.10;1.00
6178;DHT22;3122;48.208;11.174;2024-01-10T16:08:46;-5.20;1.00
6178;DHT22;3122;48.208;11.174;2024-01-10T16:13:47;-5.20;1.00
6178;DHT22;3122;48.208;11.174;2024-01-10T16:18:47;-5.10;1.00
6178;DHT22;3122;48.208;11.174;2024-01-10T16:23:48;-5.20;1.00
6178;DHT22;3122;48.208;11.174;2024-01-10T16:28:48;-5.20;1.00
6178;DHT22;3122;48.208;11.174;2024-01-10T16:33:49;-5.10;1.00
6178;DHT22;3122;48.208;11.174;2024-01-10T16:38:51;-5.10;1.00
6178;DHT22;3122;48.208;11.174;2024-01-10T16:43:51;-5.00;1.00
6178;DHT22;3122;48.208;11.174;2024-01-10T16:48:52;-4.90;1.00
6178;DHT22;3122;48.208;11.174;2024-01-10T16:53:53;-4.90;1.00
6178;DHT22;3122;48.208;11.174;2024-01-10T16:58:53;-4.90;1.00
6178;DHT22;3122;48.208;11.174;2024-01-10T17:03:54;-4.90;1.00
6178;DHT22;3122;48.208;11.174;2024-01-10T17:08:56;-5.00;1.00
6178;DHT22;3122;48.208;11.174;2024-01-10T17:13:56;-5.00;1.00
6178;DHT22;3122;48.208;11.174;2024-01-10T17:18:57;-5.00;1.00
6178;DHT22;3122;48.208;11.174;2024-01-10T17:23:57;-5.10;1.00
6178;DHT22;3122;48.208;11.174;2024-01-10T17:28:58;-5.00;1.00
6178;DHT22;3122;48.208;11.174;2024-01-10T17:33:59;-5.10;1.00
6178;DHT22;3122;48.208;11.174;2024-01-10T17:39:00;-5.20;1.00
6178;DHT22;3122;48.208;11.174;2024-01-10T17:44:00;-5.20;1.00
6178;DHT22;3122;48.208;11.174;2024-01-10T17:49:01;-5.20;1.00
6178;DHT22;3122;48.208;11.174;2024-01-10T17:54:01;-5.10;1.00
6178;DHT22;3122;48.208;11.174;2024-01-10T17:59:02;-5.20;1.00
6178;DHT22;3122;48.208;11.174;2024-01-10T18:04:03;-5.30;1.00
6178;DHT22;3122;48.208;11.174;2024-01-10T18:09:05;-5.20;1.00
6178;DHT22;3122;48.208;11.174;2024-01-10T18:14:07;-5.10;1.00
6178;DHT22;3122;48.208;11.174;2024-01-10T18:19:07;-5.10;1.00
6178;DHT22;3122;48.208;11.174;2024-01-10T18:24:08;-5.20;1.00
6178;DHT22;3122;48.208;11.174;2024-01-10T18:29:09;-5.10;1.00
6178;DHT22;3122;48.208;11.174;2024-01-10T18:34:09;-5.20;1.00
6178;DHT22;3122;48.208;11.174;2024-01-10T18:39:10;-5.20;1.00
6178;DHT22;3122;48.208;11.174;2024-01-10T18:44:13;-5.10;1.00
6178;DHT22;3122;48.208;11.174;2024-01-10T18:49:14;-5.10;1.00
6178;DHT22;3122;48.208;11.174;2024-01-10T18:54:14;-5.00;1.00
6178;DHT22;3122;48.208;11.174;2024-01-10T18:59:15;-5.00;1.00
6178;DHT22;3122;48.208;11.174;2024-01-10T19:04:16;-5.10;1.00
6178;DHT22;3122;48.208;11.174;2024-01-10T19:09:16;-5.10;1.00
6178;DHT22;3122;48.208;11.174;2024-01-10T19:14:18;-5.10;1.00
6178;DHT22;3122;48.208;11.174;2024-01-10T19:19:19;-5.00;1.00
6178;DHT22;3122;48.208;11.174;2024-01-10T19:24:22;-5.10;1.00
6178;DHT22;3122;48.208;11.174;2024-01-10T19:29:23;-5.00;1.00
6178;DHT22;3122;48.208;11.174;2024-01-10T19:34:24;-4.90;1.00
6178;DHT22;3122;48.208;11.174;2024-01-10T19:39:25;-4.90;1.00
6178;DHT22;3122;48.208;11.174;2024-01-10T19:44:26;-5.00;1.00
6178;DHT22;3122;48.208;11.174;2024-01-10T19:49:26;-4.90;1.00
6178;DHT22;3122;48.208;11.174;2024-01-10T19:54:27;-4.80;1.00
6178;DHT22;3122;48.208;11.174;2024-01-10T19:59:28;-4.90;1.00
6178;DHT22;3122;48.208;11.174;2024-01-10T20:04:28;-5.00;1.00
6178;DHT22;3122;48.208;11.174;2024-01-10T20:09:30;-5.00;1.00
6178;DHT22;3122;48.208;11.174;2024-01-10T20:14:31;-5.00;1.00
6178;DHT22;3122;48.208;11.174;2024-01-10T20:19:32;-4.80;1.00
6178;DHT22;3122;48.208;11.174;2024-01-10T20:24:33;-4.90;1.00
6178;DHT22;3122;48.208;11.174;2024-01-10T20:29:33;-4.80;1.00
6178;DHT22;3122;48.208;11.174;2024-01-10T20:34:34;-4.90;1.00
6178;DHT22;3122;48.208;11.174;2024-01-10T20:39:35;-4.60;1.00
6178;DHT22;3122;48.208;11.174;2024-01-10T20:44:35;-4.80;1.00
6178;DHT22;3122;48.208;11.174;2024-01-10T20:49:36;-4.70;1.00
6178;DHT22;3122;48.208;11.174;2024-01-10T20:54:37;-4.80;1.00
6178;DHT22;3122;48.208;11.174;2024-01-10T20:59:37;-4.90;1.00
6178;DHT22;3122;48.208;11.174;2024-01-10T21:04:38;-4.70;1.00
6178;DHT22;3122;48.208;11.174;2024-01-10T21:09:39;-4.70;1.00
6178;DHT22;3122;48.208;11.174;2024-01-10T21:14:41;-4.80;1.00
6178;DHT22;3122;48.208;11.174;2024-01-10T21:19:42;-4.80;1.00
6178;DHT22;3122;48.208;11.174;2024-01-10T21:24:43;-4.60;1.00
6178;DHT22;3122;48.208;11.174;2024-01-10T21:29:43;-4.70;1.00
6178;DHT22;3122;48.208;11.174;2024-01-10T21:34:44;-4.70;1.00
6178;DHT22;3122;48.208;11.174;2024-01-10T21:39:44;-4.70;1.00
6178;DHT22;3122;48.208;11.174;2024-01-10T21:44:45;-4.80;1.00
6178;DHT22;3122;48.208;11.174;2024-01-10T21:49:46;-4.70;1.00
6178;DHT22;3122;48.208;11.174;2024-01-10T21:54:46;-4.70;1.00
6178;DHT22;3122;48.208;11.174;2024-01-10T21:59:47;-4.70;1.00
6178;DHT22;3122;48.208;11.174;2024-01-10T22:04:47;-4.70;1.00
6178;DHT22;3122;48.208;11.174;2024-01-10T22:09:48;-4.70;1.00
6178;DHT22;3122;48.208;11.174;2024-01-10T22:14:48;-4.70;1.00
6178;DHT22;3122;48.208;11.174;2024-01-10T22:19:49;-4.40;1.00
6178;DHT22;3122;48.208;11.174;2024-01-10T22:24:49;-4.40;1.00
6178;DHT22;3122;48.208;11.174;2024-01-10T22:29:50;-4.70;1.00
6178;DHT22;3122;48.208;11.174;2024-01-10T22:34:51;-4.70;1.00
6178;DHT22;3122;48.208;11.174;2024-01-10T22:39:51;-4.40;1.00
6178;DHT22;3122;48.208;11.174;2024-01-10T22:44:52;-4.70;1.00
6178;DHT22;3122;48.208;11.174;2024-01-10T22:49:52;-4.60;1.00
6178;DHT22;3122;48.208;11.174;2024-01-10T22:54:53;-4.70;1.00
6178;DHT22;3122;48.208;11.174;2024-01-10T22:59:53;-4.70;1.00
6178;DHT22;3122;48.208;11.174;2024-01-10T23:04:54;-4.60;1.00
6178;DHT22;3122;48.208;11.174;2024-01-10T23:09:54;-4.60;1.00
6178;DHT22;3122;48.208;11.174;2024-01-10T23:14:55;-4.60;1.00
6178;DHT22;3122;48.208;11.174;2024-01-10T23:19:55;-4.40;1.00
6178;DHT22;3122;48.208;11.174;2024-01-10T23:24:56;-4.70;1.00
6178;DHT22;3122;48.208;11.174;2024-01-10T23:29:57;-4.70;1.00
6178;DHT22;3122;48.208;11.174;2024-01-10T23:34:58;-4.60;1.00
6178;DHT22;3122;48.208;11.174;2024-01-10T23:39:58;-4.70;1.00
6178;DHT22;3122;48.208;11.174;2024-01-10T23:44:59;-4.50;1.00
6178;DHT22;3122;48.208;11.174;2024-01-10T23:49:59;-4.80;1.00
6178;DHT22;3122;48.208;11.174;2024-01-10T23:55:00;-4.80;1.00
